CEST,Max TemperatureF,Mean TemperatureF,Min TemperatureF,Max Dew PointF,MeanDew PointF,Min DewpointF,Max Humidity, Mean Humidity, Min Humidity, Max Sea Level PressureIn, Mean Sea Level PressureIn, Min Sea Level PressureIn, Max VisibilityMiles, Mean VisibilityMiles, Min VisibilityMiles, Max Wind SpeedMPH, Mean Wind SpeedMPH, Max Gust SpeedMPH,PrecipitationIn, CloudCover, Events, WindDirDegrees
2013-7-1,82,70,59,59,53,46,73,53,39,30.09,30.06,30.04,6,6,6,12,4,,0.00,1,,236
2013-7-2,86,73,60,61,56,52,88,56,35,30.06,30.04,30.01,6,6,6,12,3,,0.00,1,,281
2013-7-3,82,71,60,64,57,48,100,61,32,30.04,30.00,29.95,6,6,6,12,4,,0.00,4,,232
2013-7-4,80,71,62,68,63,54,100,78,39,30.04,29.99,29.95,6,6,4,10,4,,0.00,3,Rain,211
2013-7-5,87,74,62,64,60,52,100,62,29,30.06,30.04,30.04,6,6,6,12,4,,0.00,1,,29
2013-7-6,89,78,66,68,60,54,78,57,29,30.09,30.05,30.04,6,6,6,13,4,,0.00,1,Rain-Thunderstorm,7
2013-7-7,89,78,68,70,65,59,100,74,38,30.06,30.05,30.01,6,6,6,14,4,28,0.00,2,Rain-Thunderstorm,25
2013-7-8,87,76,64,70,64,57,100,77,35,30.09,30.06,30.04,6,6,1,18,3,30,0.00,3,Rain-Thunderstorm,29
2013-7-9,87,76,64,68,64,61,100,76,40,30.06,30.03,29.98,6,6,6,10,4,,0.00,2,Rain-Thunderstorm,48
2013-7-10,86,75,64,72,65,59,94,75,40,29.98,29.92,29.86,6,6,5,13,3,,0.02,1,Rain-Thunderstorm,10
2013-7-11,86,76,67,74,67,61,100,77,47,29.92,29.88,29.86,12,6,5,12,3,23,0.00,2,Thunderstorm,33
2013-7-12,87,78,68,72,66,57,94,69,28,30.04,29.98,29.92,7,6,5,12,3,16,0.00,2,,319
2013-7-13,87,78,68,70,65,59,83,64,43,30.04,30.01,29.98,9,6,6,10,4,,0.00,1,,228
2013-7-14,88,78,69,72,67,59,94,68,30,30.02,29.98,29.95,9,6,4,22,4,,0.00,1,,273
2013-7-15,87,77,67,72,67,61,100,69,43,30.04,30.01,29.98,9,6,6,15,4,,0.00,1,Thunderstorm,206
2013-7-16,89,78,66,70,63,57,94,61,30,30.07,30.05,30.01,12,7,6,20,4,,0.00,1,,230
2013-7-17,89,78,68,73,67,57,94,67,33,30.09,30.04,30.01,9,6,6,18,4,,0.00,1,,214
2013-7-18,87,78,68,75,69,63,94,73,48,30.06,30.04,30.01,6,6,6,14,5,25,0.00,2,Thunderstorm,196
2013-7-19,86,78,68,73,69,63,100,80,51,30.06,30.03,29.98,6,6,6,10,3,,0.00,3,Rain-Thunderstorm,37
2013-7-20,86,74,62,72,64,57,100,71,37,30.01,29.97,29.92,6,6,6,10,4,,0.00,2,,346
2013-7-21,89,78,66,72,65,61,100,77,38,30.01,29.97,29.95,6,6,1,22,5,33,0.00,2,Rain-Thunderstorm,42
2013-7-22,89,76,64,73,65,57,100,71,33,30.01,29.96,29.92,6,6,6,12,4,,0.00,1,,4
2013-7-23,91,80,68,73,65,54,100,66,28,29.95,29.93,29.92,6,6,6,10,4,20,0.00,1,,283
2013-7-24,91,80,69,73,67,59,100,68,34,30.04,29.99,29.95,6,6,4,14,3,,0.00,1,,283
2013-7-25,89,78,68,75,69,64,94,72,46,30.04,30.03,30.01,6,6,6,9,3,,0.00,1,,213
2013-7-26,91,81,71,75,69,61,100,67,40,30.04,30.00,29.95,6,6,5,10,3,,0.00,2,,238
2013-7-27,95,83,71,72,68,61,89,62,36,29.98,29.95,29.92,6,6,6,10,4,,0.00,1,,265
2013-7-28,96,84,71,70,65,61,78,56,34,30.04,30.00,29.95,,,,12,3,,0.00,,,227
2013-7-29,95,83,71,77,65,57,94,59,30,30.06,30.03,30.01,6,6,6,14,5,,0.00,3,,168
2013-7-30,89,80,71,75,63,48,94,60,25,30.01,29.98,29.92,6,6,6,23,6,,0.00,1,,317
2013-7-31,91,80,68,66,61,54,78,57,28,29.98,29.93,29.92,6,6,6,16,5,23,0.00,1,,357